sensor_id;sensor_type;location;lat;lon;timestamp;temperature;humidity
12870;DHT22;6503;48.572;13.460;2022-10-03T00:00:27;11.50;99.90
12870;DHT22;6503;48.572;13.460;2022-10-03T00:03:27;11.50;99.90
12870;DHT22;6503;48.572;13.460;2022-10-03T00:06:10;11.50;99.90
12870;DHT22;6503;48.572;13.460;2022-10-03T00:09:14;11.50;99.90
12870;DHT22;6503;48.572;13.460;2022-10-03T00:15:38;11.50;99.90
12870;DHT22;6503;48.572;13.460;2022-10-03T00:18:49;11.50;99.90
12870;DHT22;6503;48.572;13.460;2022-10-03T00:21:59;11.50;99.90
12870;DHT22;6503;48.572;13.460;2022-10-03T00:28:43;11.50;99.90
12870;DHT22;6503;48.572;13.460;2022-10-03T00:38:30;11.40;99.90
12870;DHT22;6503;48.572;13.460;2022-10-03T00:41:37;11.50;99.90
12870;DHT22;6503;48.572;13.460;2022-10-03T00:45:07;11.40;99.90
12870;DHT22;6503;48.572;13.460;2022-10-03T00:48:13;11.50;99.90
12870;DHT22;6503;48.572;13.460;2022-10-03T00:51:18;11.50;99.90
12870;DHT22;6503;48.572;13.460;2022-10-03T00:54:27;11.50;99.90
12870;DHT22;6503;48.572;13.460;2022-10-03T00:58:14;11.50;99.90
12870;DHT22;6503;48.572;13.460;2022-10-03T01:21:59;11.40;99.90
12870;DHT22;6503;48.572;13.460;2022-10-03T01:25:03;11.40;99.90
12870;DHT22;6503;48.572;13.460;2022-10-03T01:28:36;11.30;99.90
12870;DHT22;6503;48.572;13.460;2022-10-03T01:31:40;11.30;99.90
12870;DHT22;6503;48.572;13.460;2022-10-03T01:34:28;11.30;99.90
12870;DHT22;6503;48.572;13.460;2022-10-03T01:37:21;11.30;99.90
12870;DHT22;6503;48.572;13.460;2022-10-03T01:40:29;11.30;99.90
12870;DHT22;6503;48.572;13.460;2022-10-03T01:50:05;11.30;99.90
12870;DHT22;6503;48.572;13.460;2022-10-03T01:52:52;11.30;99.90
12870;DHT22;6503;48.572;13.460;2022-10-03T01:55:38;11.30;99.90
12870;DHT22;6503;48.572;13.460;2022-10-03T01:58:21;11.30;99.90
12870;DHT22;6503;48.572;13.460;2022-10-03T02:01:20;11.40;99.90
12870;DHT22;6503;48.572;13.460;2022-10-03T02:04:13;11.40;99.90
12870;DHT22;6503;48.572;13.460;2022-10-03T02:07:27;11.30;99.90
12870;DHT22;6503;48.572;13.460;2022-10-03T02:10:16;11.30;99.90
12870;DHT22;6503;48.572;13.460;2022-10-03T02:13:00;11.30;99.90
12870;DHT22;6503;48.572;13.460;2022-10-03T02:15:48;11.30;99.90
12870;DHT22;6503;48.572;13.460;2022-10-03T02:18:25;11.30;99.90
12870;DHT22;6503;48.572;13.460;2022-10-03T02:21:07;11.30;99.90
12870;DHT22;6503;48.572;13.460;2022-10-03T02:23:44;11.30;99.90
12870;DHT22;6503;48.572;13.460;2022-10-03T02:26:55;11.30;99.90
12870;DHT22;6503;48.572;13.460;2022-10-03T02:33:32;11.30;99.90
12870;DHT22;6503;48.572;13.460;2022-10-03T02:40:21;11.30;99.90
12870;DHT22;6503;48.572;13.460;2022-10-03T02:43:30;11.30;99.90
12870;DHT22;6503;48.572;13.460;2022-10-03T02:46:41;11.40;99.90
12870;DHT22;6503;48.572;13.460;2022-10-03T02:49:53;11.40;99.90
12870;DHT22;6503;48.572;13.460;2022-10-03T02:56:00;11.40;99.90
12870;DHT22;6503;48.572;13.460;2022-10-03T03:02:33;11.40;99.90
12870;DHT22;6503;48.572;13.460;2022-10-03T03:08:35;11.40;99.90
12870;DHT22;6503;48.572;13.460;2022-10-03T03:11:48;11.30;99.90
12870;DHT22;6503;48.572;13.460;2022-10-03T03:18:01;11.30;99.90
12870;DHT22;6503;48.572;13.460;2022-10-03T03:21:01;11.30;99.90
12870;DHT22;6503;48.572;13.460;2022-10-03T03:24:10;11.30;99.90
12870;DHT22;6503;48.572;13.460;2022-10-03T03:27:39;11.30;99.90
12870;DHT22;6503;48.572;13.460;2022-10-03T03:30:34;11.30;99.90
12870;DHT22;6503;48.572;13.460;2022-10-03T03:33:37;11.30;99.90
12870;DHT22;6503;48.572;13.460;2022-10-03T03:36:26;11.30;99.90
12870;DHT22;6503;48.572;13.460;2022-10-03T03:39:27;11.30;99.90
12870;DHT22;6503;48.572;13.460;2022-10-03T03:42:24;11.20;99.90
12870;DHT22;6503;48.572;13.460;2022-10-03T03:45:31;11.30;99.90
12870;DHT22;6503;48.572;13.460;2022-10-03T03:48:34;11.20;99.90
12870;DHT22;6503;48.572;13.460;2022-10-03T03:51:42;11.20;99.90
12870;DHT22;6503;48.572;13.460;2022-10-03T03:54:52;11.20;99.90
12870;DHT22;6503;48.572;13.460;2022-10-03T03:57:49;11.20;99.90
12870;DHT22;6503;48.572;13.460;2022-10-03T04:00:56;11.30;99.90
12870;DHT22;6503;48.572;13.460;2022-10-03T04:03:42;11.20;99.90
12870;DHT22;6503;48.572;13.460;2022-10-03T04:06:28;11.20;99.90
12870;DHT22;6503;48.572;13.460;2022-10-03T04:12:29;11.10;99.90
12870;DHT22;6503;48.572;13.460;2022-10-03T04:22:13;11.10;99.90
12870;DHT22;6503;48.572;13.460;2022-10-03T04:31:51;11.10;99.90
12870;DHT22;6503;48.572;13.460;2022-10-03T04:35:16;11.10;99.90
12870;DHT22;6503;48.572;13.460;2022-10-03T04:38:10;11.10;99.90
12870;DHT22;6503;48.572;13.460;2022-10-03T04:40:47;11.10;99.90
12870;DHT22;6503;48.572;13.460;2022-10-03T04:43:53;11.00;99.90
12870;DHT22;6503;48.572;13.460;2022-10-03T04:46:32;10.90;99.90
12870;DHT22;6503;48.572;13.460;2022-10-03T04:49:28;11.00;99.90
12870;DHT22;6503;48.572;13.460;2022-10-03T04:52:15;11.00;99.90
12870;DHT22;6503;48.572;13.460;2022-10-03T04:55:24;11.00;99.90
12870;DHT22;6503;48.572;13.460;2022-10-03T04:58:06;11.00;99.90
12870;DHT22;6503;48.572;13.460;2022-10-03T05:00:52;11.00;99.90
12870;DHT22;6503;48.572;13.460;2022-10-03T05:03:42;11.10;99.90
12870;DHT22;6503;48.572;13.460;2022-10-03T05:06:44;11.20;99.90
12870;DHT22;6503;48.572;13.460;2022-10-03T05:10:03;11.10;99.90
12870;DHT22;6503;48.572;13.460;2022-10-03T05:12:56;11.00;99.90
12870;DHT22;6503;48.572;13.460;2022-10-03T05:15:58;11.10;99.90
12870;DHT22;6503;48.572;13.460;2022-10-03T05:18:43;11.20;99.90
12870;DHT22;6503;48.572;13.460;2022-10-03T05:21:32;11.20;99.90
12870;DHT22;6503;48.572;13.460;2022-10-03T05:27:50;11.10;99.90
12870;DHT22;6503;48.572;13.460;2022-10-03T05:30:38;11.10;99.90
12870;DHT22;6503;48.572;13.460;2022-10-03T05:33:22;11.10;99.90
12870;DHT22;6503;48.572;13.460;2022-10-03T05:36:14;11.10;99.90
12870;DHT22;6503;48.572;13.460;2022-10-03T05:39:19;11.10;99.90
12870;DHT22;6503;48.572;13.460;2022-10-03T05:41:54;11.10;99.90
12870;DHT22;6503;48.572;13.460;2022-10-03T05:44:40;11.10;99.90
12870;DHT22;6503;48.572;13.460;2022-10-03T05:47:16;11.10;99.90
12870;DHT22;6503;48.572;13.460;2022-10-03T06:00:14;11.10;99.90
12870;DHT22;6503;48.572;13.460;2022-10-03T06:03:57;11.10;99.90
12870;DHT22;6503;48.572;13.460;2022-10-03T06:06:41;11.00;99.90
12870;DHT22;6503;48.572;13.460;2022-10-03T06:09:39;11.20;99.90
12870;DHT22;6503;48.572;13.460;2022-10-03T06:12:30;11.30;99.90
12870;DHT22;6503;48.572;13.460;2022-10-03T06:15:36;11.30;99.90
12870;DHT22;6503;48.572;13.460;2022-10-03T06:18:24;11.30;99.90
12870;DHT22;6503;48.572;13.460;2022-10-03T06:21:32;11.30;99.90
12870;DHT22;6503;48.572;13.460;2022-10-03T06:31:21;11.50;99.90
12870;DHT22;6503;48.572;13.460;2022-10-03T06:34:48;11.60;99.90
12870;DHT22;6503;48.572;13.460;2022-10-03T06:38:12;11.60;99.90
12870;DHT22;6503;48.572;13.460;2022-10-03T06:44:21;11.40;99.90
12870;DHT22;6503;48.572;13.460;2022-10-03T06:47:36;11.30;99.90
12870;DHT22;6503;48.572;13.460;2022-10-03T06:50:38;11.30;99.90
12870;DHT22;6503;48.572;13.460;2022-10-03T06:53:34;11.40;99.90
12870;DHT22;6503;48.572;13.460;2022-10-03T06:56:39;11.50;99.90
12870;DHT22;6503;48.572;13.460;2022-10-03T07:06:25;11.60;99.90
12870;DHT22;6503;48.572;13.460;2022-10-03T07:09:29;11.60;99.90
12870;DHT22;6503;48.572;13.460;2022-10-03T07:15:55;11.50;99.90
12870;DHT22;6503;48.572;13.460;2022-10-03T07:25:23;11.80;99.90
12870;DHT22;6503;48.572;13.460;2022-10-03T07:28:08;11.70;99.90
12870;DHT22;6503;48.572;13.460;2022-10-03T07:30:59;11.70;99.90
12870;DHT22;6503;48.572;13.460;2022-10-03T07:34:02;11.70;99.90
12870;DHT22;6503;48.572;13.460;2022-10-03T07:36:52;11.90;99.90
12870;DHT22;6503;48.572;13.460;2022-10-03T07:40:05;11.80;99.90
12870;DHT22;6503;48.572;13.460;2022-10-03T07:43:20;11.70;99.90
12870;DHT22;6503;48.572;13.460;2022-10-03T07:49:20;11.80;99.90
12870;DHT22;6503;48.572;13.460;2022-10-03T07:52:11;11.90;99.90
12870;DHT22;6503;48.572;13.460;2022-10-03T07:55:15;12.00;99.90
12870;DHT22;6503;48.572;13.460;2022-10-03T08:04:19;12.20;99.90
12870;DHT22;6503;48.572;13.460;2022-10-03T08:07:08;12.20;99.90
12870;DHT22;6503;48.572;13.460;2022-10-03T08:10:07;12.20;99.90
12870;DHT22;6503;48.572;13.460;2022-10-03T08:16:20;12.20;99.90
12870;DHT22;6503;48.572;13.460;2022-10-03T08:19:05;12.30;99.90
12870;DHT22;6503;48.572;13.460;2022-10-03T08:21:50;12.30;99.90
12870;DHT22;6503;48.572;13.460;2022-10-03T08:24:33;12.30;99.90
12870;DHT22;6503;48.572;13.460;2022-10-03T08:27:30;12.40;99.90
12870;DHT22;6503;48.572;13.460;2022-10-03T08:30:19;12.40;99.90
12870;DHT22;6503;48.572;13.460;2022-10-03T08:33:16;12.30;99.90
12870;DHT22;6503;48.572;13.460;2022-10-03T08:36:17;12.40;99.90
12870;DHT22;6503;48.572;13.460;2022-10-03T08:39:15;12.60;99.90
12870;DHT22;6503;48.572;13.460;2022-10-03T08:42:13;12.60;99.90
12870;DHT22;6503;48.572;13.460;2022-10-03T08:45:09;12.70;99.90
12870;DHT22;6503;48.572;13.460;2022-10-03T08:48:14;12.70;99.90
12870;DHT22;6503;48.572;13.460;2022-10-03T08:54:23;13.10;99.90
12870;DHT22;6503;48.572;13.460;2022-10-03T08:57:12;13.10;99.90
12870;DHT22;6503;48.572;13.460;2022-10-03T09:00:07;13.10;99.90
12870;DHT22;6503;48.572;13.460;2022-10-03T09:03:25;13.20;99.90
12870;DHT22;6503;48.572;13.460;2022-10-03T09:06:51;13.40;99.90
12870;DHT22;6503;48.572;13.460;2022-10-03T09:12:41;13.60;99.90
12870;DHT22;6503;48.572;13.460;2022-10-03T09:15:38;13.70;99.90
12870;DHT22;6503;48.572;13.460;2022-10-03T09:18:36;13.50;99.90
12870;DHT22;6503;48.572;13.460;2022-10-03T09:24:41;13.40;99.90
12870;DHT22;6503;48.572;13.460;2022-10-03T09:27:36;13.40;99.90
12870;DHT22;6503;48.572;13.460;2022-10-03T09:30:20;13.40;99.90
12870;DHT22;6503;48.572;13.460;2022-10-03T09:33:18;13.40;99.90
12870;DHT22;6503;48.572;13.460;2022-10-03T09:36:05;13.50;99.90
12870;DHT22;6503;48.572;13.460;2022-10-03T09:38:58;13.40;99.90
12870;DHT22;6503;48.572;13.460;2022-10-03T09:42:03;13.30;99.90
12870;DHT22;6503;48.572;13.460;2022-10-03T09:56:59;14.20;99.90
12870;DHT22;6503;48.572;13.460;2022-10-03T09:59:46;14.00;99.90
12870;DHT22;6503;48.572;13.460;2022-10-03T10:02:50;14.20;99.90
12870;DHT22;6503;48.572;13.460;2022-10-03T10:05:45;14.40;99.90
12870;DHT22;6503;48.572;13.460;2022-10-03T10:08:32;14.60;99.90
12870;DHT22;6503;48.572;13.460;2022-10-03T10:11:22;14.90;99.90
12870;DHT22;6503;48.572;13.460;2022-10-03T10:14:16;15.10;99.90
12870;DHT22;6503;48.572;13.460;2022-10-03T10:20:08;14.90;99.90
12870;DHT22;6503;48.572;13.460;2022-10-03T10:23:13;14.80;99.90
12870;DHT22;6503;48.572;13.460;2022-10-03T10:26:16;14.90;99.90
12870;DHT22;6503;48.572;13.460;2022-10-03T10:32:34;14.90;99.90
12870;DHT22;6503;48.572;13.460;2022-10-03T10:42:23;14.90;99.90
12870;DHT22;6503;48.572;13.460;2022-10-03T10:45:22;15.00;99.90
12870;DHT22;6503;48.572;13.460;2022-10-03T10:57:23;14.70;99.90
12870;DHT22;6503;48.572;13.460;2022-10-03T11:00:22;14.60;99.90
12870;DHT22;6503;48.572;13.460;2022-10-03T11:09:30;14.30;99.90
12870;DHT22;6503;48.572;13.460;2022-10-03T11:22:01;14.20;99.90
12870;DHT22;6503;48.572;13.460;2022-10-03T11:25:11;14.20;99.90
12870;DHT22;6503;48.572;13.460;2022-10-03T11:31:14;14.20;99.90
12870;DHT22;6503;48.572;13.460;2022-10-03T11:40:11;14.70;99.90
12870;DHT22;6503;48.572;13.460;2022-10-03T11:42:52;14.80;99.90
12870;DHT22;6503;48.572;13.460;2022-10-03T11:45:26;14.90;99.90
12870;DHT22;6503;48.572;13.460;2022-10-03T11:48:07;14.90;99.90
12870;DHT22;6503;48.572;13.460;2022-10-03T11:50:43;14.90;99.90
12870;DHT22;6503;48.572;13.460;2022-10-03T11:53:33;15.00;99.90
12870;DHT22;6503;48.572;13.460;2022-10-03T11:56:18;15.00;99.90
12870;DHT22;6503;48.572;13.460;2022-10-03T11:59:00;15.00;99.90
12870;DHT22;6503;48.572;13.460;2022-10-03T12:01:42;15.10;99.90
12870;DHT22;6503;48.572;13.460;2022-10-03T12:04:19;15.00;99.90
12870;DHT22;6503;48.572;13.460;2022-10-03T12:07:06;15.00;99.90
12870;DHT22;6503;48.572;13.460;2022-10-03T12:10:02;15.20;99.90
12870;DHT22;6503;48.572;13.460;2022-10-03T12:12:37;15.30;99.90
12870;DHT22;6503;48.572;13.460;2022-10-03T12:15:23;15.20;99.90
12870;DHT22;6503;48.572;13.460;2022-10-03T12:18:04;14.90;99.90
12870;DHT22;6503;48.572;13.460;2022-10-03T12:20:41;14.90;99.90
12870;DHT22;6503;48.572;13.460;2022-10-03T12:23:25;14.90;99.90
12870;DHT22;6503;48.572;13.460;2022-10-03T12:26:06;15.40;99.90
12870;DHT22;6503;48.572;13.460;2022-10-03T12:28:38;15.80;99.90
12870;DHT22;6503;48.572;13.460;2022-10-03T12:31:17;15.70;99.90
12870;DHT22;6503;48.572;13.460;2022-10-03T12:33:53;15.80;99.90
12870;DHT22;6503;48.572;13.460;2022-10-03T12:36:26;15.70;99.90
12870;DHT22;6503;48.572;13.460;2022-10-03T12:39:13;15.80;99.90
12870;DHT22;6503;48.572;13.460;2022-10-03T12:42:01;16.00;99.90
12870;DHT22;6503;48.572;13.460;2022-10-03T12:44:39;16.40;99.90
12870;DHT22;6503;48.572;13.460;2022-10-03T12:47:24;16.40;99.90
12870;DHT22;6503;48.572;13.460;2022-10-03T12:50:00;16.70;99.90
12870;DHT22;6503;48.572;13.460;2022-10-03T12:52:36;17.00;99.90
12870;DHT22;6503;48.572;13.460;2022-10-03T12:55:23;17.30;99.90
12870;DHT22;6503;48.572;13.460;2022-10-03T12:57:54;17.20;99.90
12870;DHT22;6503;48.572;13.460;2022-10-03T13:00:33;17.20;99.90
12870;DHT22;6503;48.572;13.460;2022-10-03T13:03:13;17.20;99.90
12870;DHT22;6503;48.572;13.460;2022-10-03T13:08:41;17.00;99.90
12870;DHT22;6503;48.572;13.460;2022-10-03T13:11:21;17.20;99.90
12870;DHT22;6503;48.572;13.460;2022-10-03T13:14:03;17.10;99.90
12870;DHT22;6503;48.572;13.460;2022-10-03T13:16:39;16.60;99.90
12870;DHT22;6503;48.572;13.460;2022-10-03T13:19:11;16.30;99.90
12870;DHT22;6503;48.572;13.460;2022-10-03T13:21:52;16.30;99.90
12870;DHT22;6503;48.572;13.460;2022-10-03T13:24:32;16.20;99.90
12870;DHT22;6503;48.572;13.460;2022-10-03T13:27:25;16.00;99.90
12870;DHT22;6503;48.572;13.460;2022-10-03T13:30:04;15.80;99.90
12870;DHT22;6503;48.572;13.460;2022-10-03T13:32:36;15.70;99.90
12870;DHT22;6503;48.572;13.460;2022-10-03T13:35:19;15.60;99.90
12870;DHT22;6503;48.572;13.460;2022-10-03T13:38:20;15.40;99.90
12870;DHT22;6503;48.572;13.460;2022-10-03T13:40:55;15.40;99.90
12870;DHT22;6503;48.572;13.460;2022-10-03T13:43:28;15.30;99.90
12870;DHT22;6503;48.572;13.460;2022-10-03T13:46:05;15.20;99.90
12870;DHT22;6503;48.572;13.460;2022-10-03T13:48:39;15.20;99.90
12870;DHT22;6503;48.572;13.460;2022-10-03T13:51:17;15.20;99.90
12870;DHT22;6503;48.572;13.460;2022-10-03T13:53:56;15.10;99.90
12870;DHT22;6503;48.572;13.460;2022-10-03T13:56:41;15.20;99.90
12870;DHT22;6503;48.572;13.460;2022-10-03T13:59:31;15.20;99.90
12870;DHT22;6503;48.572;13.460;2022-10-03T14:02:14;15.30;99.90
12870;DHT22;6503;48.572;13.460;2022-10-03T14:05:06;15.20;99.90
12870;DHT22;6503;48.572;13.460;2022-10-03T14:07:44;15.20;99.90
12870;DHT22;6503;48.572;13.460;2022-10-03T14:10:30;15.30;99.90
12870;DHT22;6503;48.572;13.460;2022-10-03T14:13:10;15.30;99.90
12870;DHT22;6503;48.572;13.460;2022-10-03T14:15:47;15.50;99.90
12870;DHT22;6503;48.572;13.460;2022-10-03T14:18:37;15.40;99.90
12870;DHT22;6503;48.572;13.460;2022-10-03T14:21:25;15.30;99.90
12870;DHT22;6503;48.572;13.460;2022-10-03T14:24:02;15.40;99.90
12870;DHT22;6503;48.572;13.460;2022-10-03T14:26:35;15.40;99.90
12870;DHT22;6503;48.572;13.460;2022-10-03T14:29:11;15.30;99.90
12870;DHT22;6503;48.572;13.460;2022-10-03T14:31:47;15.10;99.90
12870;DHT22;6503;48.572;13.460;2022-10-03T14:34:30;15.10;99.90
12870;DHT22;6503;48.572;13.460;2022-10-03T14:37:13;15.20;99.90
12870;DHT22;6503;48.572;13.460;2022-10-03T14:39:52;15.20;99.90
12870;DHT22;6503;48.572;13.460;2022-10-03T14:42:39;15.30;99.90
12870;DHT22;6503;48.572;13.460;2022-10-03T14:45:13;15.30;99.90
12870;DHT22;6503;48.572;13.460;2022-10-03T14:47:48;15.20;99.90
12870;DHT22;6503;48.572;13.460;2022-10-03T14:50:18;15.10;99.90
12870;DHT22;6503;48.572;13.460;2022-10-03T14:52:51;15.10;99.90
12870;DHT22;6503;48.572;13.460;2022-10-03T14:55:29;15.20;99.90
12870;DHT22;6503;48.572;13.460;2022-10-03T14:58:00;15.10;99.90
12870;DHT22;6503;48.572;13.460;2022-10-03T15:00:37;15.00;99.90
12870;DHT22;6503;48.572;13.460;2022-10-03T15:03:23;14.90;99.90
12870;DHT22;6503;48.572;13.460;2022-10-03T15:06:19;14.70;99.90
12870;DHT22;6503;48.572;13.460;2022-10-03T15:08:51;14.80;99.90
12870;DHT22;6503;48.572;13.460;2022-10-03T15:11:22;14.90;99.90
12870;DHT22;6503;48.572;13.460;2022-10-03T15:13:54;14.90;99.90
12870;DHT22;6503;48.572;13.460;2022-10-03T15:16:22;14.90;99.90
12870;DHT22;6503;48.572;13.460;2022-10-03T15:18:52;14.80;99.90
12870;DHT22;6503;48.572;13.460;2022-10-03T15:21:21;14.80;99.90
12870;DHT22;6503;48.572;13.460;2022-10-03T15:23:55;14.70;99.90
12870;DHT22;6503;48.572;13.460;2022-10-03T15:26:24;14.60;99.90
12870;DHT22;6503;48.572;13.460;2022-10-03T15:28:55;14.50;99.90
12870;DHT22;6503;48.572;13.460;2022-10-03T15:31:27;14.50;99.90
12870;DHT22;6503;48.572;13.460;2022-10-03T15:33:59;14.50;99.90
12870;DHT22;6503;48.572;13.460;2022-10-03T15:36:30;14.60;99.90
12870;DHT22;6503;48.572;13.460;2022-10-03T15:39:03;14.40;99.90
12870;DHT22;6503;48.572;13.460;2022-10-03T15:41:33;14.40;99.90
12870;DHT22;6503;48.572;13.460;2022-10-03T15:44:09;14.40;99.90
12870;DHT22;6503;48.572;13.460;2022-10-03T15:46:43;14.30;99.90
12870;DHT22;6503;48.572;13.460;2022-10-03T15:49:18;14.40;99.90
12870;DHT22;6503;48.572;13.460;2022-10-03T15:51:47;14.30;99.90
12870;DHT22;6503;48.572;13.460;2022-10-03T15:54:20;14.30;99.90
12870;DHT22;6503;48.572;13.460;2022-10-03T15:56:50;14.20;99.90
12870;DHT22;6503;48.572;13.460;2022-10-03T15:59:18;14.10;99.90
12870;DHT22;6503;48.572;13.460;2022-10-03T16:01:49;14.20;99.90
12870;DHT22;6503;48.572;13.460;2022-10-03T16:04:21;14.10;99.90
12870;DHT22;6503;48.572;13.460;2022-10-03T16:06:58;14.00;99.90
12870;DHT22;6503;48.572;13.460;2022-10-03T16:09:33;13.80;99.90
12870;DHT22;6503;48.572;13.460;2022-10-03T16:12:34;13.70;99.90
12870;DHT22;6503;48.572;13.460;2022-10-03T16:15:14;13.60;99.90
12870;DHT22;6503;48.572;13.460;2022-10-03T16:17:47;13.60;99.90
12870;DHT22;6503;48.572;13.460;2022-10-03T16:20:21;13.70;99.90
12870;DHT22;6503;48.572;13.460;2022-10-03T16:22:50;13.70;99.90
12870;DHT22;6503;48.572;13.460;2022-10-03T16:25:21;13.80;99.90
12870;DHT22;6503;48.572;13.460;2022-10-03T16:27:53;13.90;99.90
12870;DHT22;6503;48.572;13.460;2022-10-03T16:30:22;13.80;99.90
12870;DHT22;6503;48.572;13.460;2022-10-03T16:32:57;13.80;99.90
12870;DHT22;6503;48.572;13.460;2022-10-03T16:35:31;13.80;99.90
12870;DHT22;6503;48.572;13.460;2022-10-03T16:38:00;13.70;99.90
12870;DHT22;6503;48.572;13.460;2022-10-03T16:40:31;13.60;99.90
12870;DHT22;6503;48.572;13.460;2022-10-03T16:43:03;13.60;99.90
12870;DHT22;6503;48.572;13.460;2022-10-03T16:45:38;13.50;99.90
12870;DHT22;6503;48.572;13.460;2022-10-03T16:48:12;13.50;99.90
12870;DHT22;6503;48.572;13.460;2022-10-03T16:50:58;13.50;99.90
12870;DHT22;6503;48.572;13.460;2022-10-03T16:53:27;13.50;99.90
12870;DHT22;6503;48.572;13.460;2022-10-03T16:55:58;13.50;99.90
12870;DHT22;6503;48.572;13.460;2022-10-03T16:58:34;13.40;99.90
12870;DHT22;6503;48.572;13.460;2022-10-03T17:01:06;13.40;99.90
12870;DHT22;6503;48.572;13.460;2022-10-03T17:03:36;13.40;99.90
12870;DHT22;6503;48.572;13.460;2022-10-03T17:06:07;13.30;99.90
12870;DHT22;6503;48.572;13.460;2022-10-03T17:08:42;13.30;99.90
12870;DHT22;6503;48.572;13.460;2022-10-03T17:11:17;13.20;99.90
12870;DHT22;6503;48.572;13.460;2022-10-03T17:13:51;13.20;99.90
12870;DHT22;6503;48.572;13.460;2022-10-03T17:16:27;13.10;99.90
12870;DHT22;6503;48.572;13.460;2022-10-03T17:19:17;13.00;99.90
12870;DHT22;6503;48.572;13.460;2022-10-03T17:21:48;13.00;99.90
12870;DHT22;6503;48.572;13.460;2022-10-03T17:24:26;13.00;99.90
12870;DHT22;6503;48.572;13.460;2022-10-03T17:26:56;12.90;99.90
12870;DHT22;6503;48.572;13.460;2022-10-03T17:29:31;12.90;99.90
12870;DHT22;6503;48.572;13.460;2022-10-03T17:32:01;12.80;99.90
12870;DHT22;6503;48.572;13.460;2022-10-03T17:34:33;12.70;99.90
12870;DHT22;6503;48.572;13.460;2022-10-03T17:37:15;12.70;99.90
12870;DHT22;6503;48.572;13.460;2022-10-03T17:39:53;12.60;99.90
12870;DHT22;6503;48.572;13.460;2022-10-03T17:42:35;12.50;99.90
12870;DHT22;6503;48.572;13.460;2022-10-03T17:45:21;12.50;99.90
12870;DHT22;6503;48.572;13.460;2022-10-03T17:47:55;12.40;99.90
12870;DHT22;6503;48.572;13.460;2022-10-03T17:50:28;12.40;99.90
12870;DHT22;6503;48.572;13.460;2022-10-03T17:52:56;12.30;99.90
12870;DHT22;6503;48.572;13.460;2022-10-03T17:55:29;12.40;99.90
12870;DHT22;6503;48.572;13.460;2022-10-03T17:58:02;12.40;99.90
12870;DHT22;6503;48.572;13.460;2022-10-03T18:00:52;12.30;99.90
12870;DHT22;6503;48.572;13.460;2022-10-03T18:03:24;12.30;99.90
12870;DHT22;6503;48.572;13.460;2022-10-03T18:05:56;12.40;99.90
12870;DHT22;6503;48.572;13.460;2022-10-03T18:08:27;12.30;99.90
12870;DHT22;6503;48.572;13.460;2022-10-03T18:10:55;12.30;99.90
12870;DHT22;6503;48.572;13.460;2022-10-03T18:13:27;12.20;99.90
12870;DHT22;6503;48.572;13.460;2022-10-03T18:16:17;12.20;99.90
12870;DHT22;6503;48.572;13.460;2022-10-03T18:19:16;12.20;99.90
12870;DHT22;6503;48.572;13.460;2022-10-03T18:22:05;12.20;99.90
12870;DHT22;6503;48.572;13.460;2022-10-03T18:24:46;12.10;99.90
12870;DHT22;6503;48.572;13.460;2022-10-03T18:27:43;12.00;99.90
12870;DHT22;6503;48.572;13.460;2022-10-03T18:30:20;12.00;99.90
12870;DHT22;6503;48.572;13.460;2022-10-03T18:32:50;12.00;99.90
12870;DHT22;6503;48.572;13.460;2022-10-03T18:35:21;12.00;99.90
12870;DHT22;6503;48.572;13.460;2022-10-03T18:37:53;11.90;99.90
12870;DHT22;6503;48.572;13.460;2022-10-03T18:40:25;11.90;99.90
12870;DHT22;6503;48.572;13.460;2022-10-03T18:42:53;11.80;99.90
12870;DHT22;6503;48.572;13.460;2022-10-03T18:45:26;11.70;99.90
12870;DHT22;6503;48.572;13.460;2022-10-03T18:47:58;11.70;99.90
12870;DHT22;6503;48.572;13.460;2022-10-03T18:50:29;11.60;99.90
12870;DHT22;6503;48.572;13.460;2022-10-03T18:53:04;11.50;99.90
12870;DHT22;6503;48.572;13.460;2022-10-03T18:55:36;11.50;99.90
12870;DHT22;6503;48.572;13.460;2022-10-03T18:58:14;11.50;99.90
12870;DHT22;6503;48.572;13.460;2022-10-03T19:00:49;11.30;99.90
12870;DHT22;6503;48.572;13.460;2022-10-03T19:03:20;11.20;99.90
12870;DHT22;6503;48.572;13.460;2022-10-03T19:05:51;11.10;99.90
12870;DHT22;6503;48.572;13.460;2022-10-03T19:08:23;11.10;99.90
12870;DHT22;6503;48.572;13.460;2022-10-03T19:10:52;11.10;99.90
12870;DHT22;6503;48.572;13.460;2022-10-03T19:13:27;11.10;99.90
12870;DHT22;6503;48.572;13.460;2022-10-03T19:16:16;11.00;99.90
12870;DHT22;6503;48.572;13.460;2022-10-03T19:18:55;11.00;99.90
12870;DHT22;6503;48.572;13.460;2022-10-03T19:21:24;10.90;99.90
12870;DHT22;6503;48.572;13.460;2022-10-03T19:23:56;11.00;99.90
12870;DHT22;6503;48.572;13.460;2022-10-03T19:26:29;10.90;99.90
12870;DHT22;6503;48.572;13.460;2022-10-03T19:28:59;10.80;99.90
12870;DHT22;6503;48.572;13.460;2022-10-03T19:31:32;10.80;99.90
12870;DHT22;6503;48.572;13.460;2022-10-03T19:34:03;10.60;99.90
12870;DHT22;6503;48.572;13.460;2022-10-03T19:36:35;10.70;99.90
12870;DHT22;6503;48.572;13.460;2022-10-03T19:39:04;10.70;99.90
12870;DHT22;6503;48.572;13.460;2022-10-03T19:41:34;10.70;99.90
12870;DHT22;6503;48.572;13.460;2022-10-03T19:44:05;10.70;99.90
12870;DHT22;6503;48.572;13.460;2022-10-03T19:46:54;10.60;99.90
12870;DHT22;6503;48.572;13.460;2022-10-03T19:49:31;10.60;99.90
12870;DHT22;6503;48.572;13.460;2022-10-03T19:52:17;10.60;99.90
12870;DHT22;6503;48.572;13.460;2022-10-03T19:54:49;10.60;99.90
12870;DHT22;6503;48.572;13.460;2022-10-03T19:57:18;10.50;99.90
12870;DHT22;6503;48.572;13.460;2022-10-03T19:59:51;10.40;99.90
12870;DHT22;6503;48.572;13.460;2022-10-03T20:02:24;10.50;99.90
12870;DHT22;6503;48.572;13.460;2022-10-03T20:04:53;10.40;99.90
12870;DHT22;6503;48.572;13.460;2022-10-03T20:07:36;10.30;99.90
12870;DHT22;6503;48.572;13.460;2022-10-03T20:10:22;10.20;99.90
12870;DHT22;6503;48.572;13.460;2022-10-03T20:12:52;10.10;99.90
12870;DHT22;6503;48.572;13.460;2022-10-03T20:15:21;10.10;99.90
12870;DHT22;6503;48.572;13.460;2022-10-03T20:17:55;10.10;99.90
12870;DHT22;6503;48.572;13.460;2022-10-03T20:20:24;10.00;99.90
12870;DHT22;6503;48.572;13.460;2022-10-03T20:22:53;9.90;99.90
12870;DHT22;6503;48.572;13.460;2022-10-03T20:25:26;9.90;99.90
12870;DHT22;6503;48.572;13.460;2022-10-03T20:28:00;9.90;99.90
12870;DHT22;6503;48.572;13.460;2022-10-03T20:30:38;9.80;99.90
12870;DHT22;6503;48.572;13.460;2022-10-03T20:33:15;9.80;99.90
12870;DHT22;6503;48.572;13.460;2022-10-03T20:35:50;9.70;99.90
12870;DHT22;6503;48.572;13.460;2022-10-03T20:38:25;9.70;99.90
12870;DHT22;6503;48.572;13.460;2022-10-03T20:40:57;9.70;99.90
12870;DHT22;6503;48.572;13.460;2022-10-03T20:43:33;9.70;99.90
12870;DHT22;6503;48.572;13.460;2022-10-03T20:46:13;9.60;99.90
12870;DHT22;6503;48.572;13.460;2022-10-03T20:48:54;9.50;99.90
12870;DHT22;6503;48.572;13.460;2022-10-03T20:51:38;9.50;99.90
12870;DHT22;6503;48.572;13.460;2022-10-03T20:54:14;9.50;99.90